createdAt,value
2023-04-18T00:00:57.204Z,86.29
2023-04-18T00:03:59.986Z,86.64
2023-04-18T00:07:06.673Z,86.28
2023-04-18T00:10:11.577Z,86.70
2023-04-18T00:13:14.320Z,86.80
2023-04-18T00:16:17.031Z,87.00
2023-04-18T00:19:20.168Z,86.88
2023-04-18T00:22:23.613Z,86.94
2023-04-18T00:25:27.811Z,86.67
2023-04-18T00:28:30.575Z,86.85
2023-04-18T00:31:33.313Z,86.59
2023-04-18T00:34:36.118Z,86.85
2023-04-18T00:37:38.787Z,86.90
2023-04-18T00:40:42.861Z,86.76
2023-04-18T00:43:45.564Z,86.49
2023-04-18T00:46:48.326Z,86.63
2023-04-18T00:49:51.532Z,86.88
2023-04-18T00:52:54.838Z,87.00
2023-04-18T00:55:58.967Z,86.92
2023-04-18T00:59:01.870Z,86.92
2023-04-18T01:02:05.402Z,86.66
2023-04-18T01:05:39.604Z,86.46
2023-04-18T01:08:43.716Z,86.83
2023-04-18T01:11:47.769Z,86.75
2023-04-18T01:14:50.652Z,86.62
2023-04-18T01:17:53.505Z,86.46
2023-04-18T01:20:57.080Z,86.87
2023-04-18T01:24:05.577Z,86.66
2023-04-18T01:27:13.340Z,86.61
2023-04-18T01:30:16.277Z,86.42
2023-04-18T01:33:18.912Z,86.71
2023-04-18T01:36:21.696Z,86.57
2023-04-18T01:39:24.369Z,86.29
2023-04-18T01:42:28.365Z,86.42
2023-04-18T01:45:33.669Z,86.34
2023-04-18T01:48:36.394Z,86.20
2023-04-18T01:51:39.866Z,86.33
2023-04-18T01:54:42.564Z,86.08
2023-04-18T01:57:46.559Z,86.09
2023-04-18T02:00:49.334Z,86.25
2023-04-18T02:03:52.071Z,86.19
2023-04-18T02:06:54.904Z,86.14
2023-04-18T02:09:57.594Z,85.91
2023-04-18T02:13:04.271Z,86.06
2023-04-18T02:16:14.059Z,86.34
2023-04-18T02:19:16.738Z,86.49
2023-04-18T02:22:19.643Z,86.53
2023-04-18T02:25:23.629Z,86.62
2023-04-18T02:28:27.654Z,86.56
2023-04-18T02:31:30.391Z,86.46
2023-04-18T02:34:33.778Z,86.63
2023-04-18T02:37:36.605Z,86.94
2023-04-18T02:40:39.245Z,86.68
2023-04-18T02:43:43.290Z,86.92
2023-04-18T02:46:45.983Z,87.19
2023-04-18T02:49:48.739Z,86.95
2023-04-18T02:52:51.427Z,87.31
2023-04-18T02:55:54.086Z,87.12
2023-04-18T02:58:58.068Z,87.13
2023-04-18T03:02:02.202Z,87.25
2023-04-18T03:05:05.317Z,87.69
2023-04-18T03:08:08.285Z,87.45
2023-04-18T03:11:10.934Z,87.52
2023-04-18T03:14:15.484Z,87.76
2023-04-18T03:21:40.075Z,87.40
2023-04-18T03:24:43.458Z,87.46
2023-04-18T03:27:46.140Z,87.58
2023-04-18T03:30:50.624Z,87.91
2023-04-18T03:33:53.362Z,87.96
2023-04-18T03:36:56.032Z,87.79
2023-04-18T03:39:58.680Z,87.85
2023-04-18T03:43:01.271Z,88.04
2023-04-18T03:46:06.336Z,88.43
2023-04-18T03:49:08.973Z,88.11
2023-04-18T03:52:11.642Z,87.70
2023-04-18T03:55:14.465Z,88.03
2023-04-18T03:58:18.024Z,87.77
2023-04-18T04:01:22.006Z,87.77
2023-04-18T04:04:25.396Z,87.69
2023-04-18T04:07:28.042Z,87.47
2023-04-18T04:10:31.212Z,87.17
2023-04-18T04:13:34.318Z,87.04
2023-04-18T04:16:38.480Z,87.19
2023-04-18T04:19:41.159Z,86.85
2023-04-18T04:22:43.860Z,86.86
2023-04-18T04:25:46.705Z,86.85
2023-04-18T04:28:50.318Z,86.74
2023-04-18T04:31:54.312Z,86.58
2023-04-18T04:34:57.296Z,86.47
2023-04-18T04:38:01.548Z,86.33
2023-04-18T04:41:04.185Z,86.32
2023-04-18T04:44:07.148Z,86.16
2023-04-18T04:47:11.174Z,86.10
2023-04-18T04:50:15.773Z,86.49
2023-04-18T04:53:18.487Z,86.85
2023-04-18T04:56:22.757Z,86.54
2023-04-18T04:59:25.943Z,86.64
2023-04-18T05:02:30.083Z,86.51
2023-04-18T05:05:32.839Z,86.08
2023-04-18T05:08:35.544Z,85.80
2023-04-18T05:11:38.166Z,85.17
2023-04-18T05:14:41.200Z,83.45
2023-04-18T05:17:45.398Z,82.71
2023-04-18T05:20:48.137Z,82.62
2023-04-18T05:23:51.390Z,82.33
2023-04-18T05:26:54.646Z,81.65
2023-04-18T05:29:57.361Z,81.57
2023-04-18T05:33:02.182Z,81.61
2023-04-18T05:36:05.576Z,79.61
2023-04-18T05:39:08.279Z,80.81
2023-04-18T05:42:10.945Z,81.42
2023-04-18T05:45:13.755Z,81.61
2023-04-18T05:48:17.782Z,81.48
2023-04-18T05:51:20.520Z,78.83
2023-04-18T05:54:23.185Z,79.57
2023-04-18T05:57:25.865Z,80.02
2023-04-18T06:00:28.860Z,80.02
2023-04-18T06:03:33.050Z,80.69
2023-04-18T06:06:36.219Z,80.48
2023-04-18T06:09:38.901Z,80.40
2023-04-18T06:12:41.632Z,80.80
2023-04-18T06:15:44.333Z,80.67
2023-04-18T06:18:48.383Z,80.38
2023-04-18T06:21:51.318Z,80.84
2023-04-18T06:24:55.436Z,80.50
2023-04-18T06:27:58.087Z,80.52
2023-04-18T06:31:00.770Z,80.28
2023-04-18T06:34:04.769Z,79.94
2023-04-18T06:37:07.763Z,80.20
2023-04-18T06:40:11.583Z,79.15
2023-04-18T06:43:14.279Z,79.35
2023-04-18T06:46:17.044Z,77.89
2023-04-18T06:49:25.200Z,77.15
2023-04-18T06:52:29.182Z,78.84
2023-04-18T06:55:31.929Z,79.53
2023-04-18T06:58:34.749Z,78.87
2023-04-18T07:01:41.364Z,79.29
2023-04-18T07:04:45.557Z,79.54
2023-04-18T07:07:48.291Z,79.11
2023-04-18T07:10:51.332Z,79.08
2023-04-18T07:13:54.212Z,77.86
2023-04-18T07:16:57.637Z,78.13
2023-04-18T07:20:01.915Z,78.31
2023-04-18T07:23:04.749Z,77.41
2023-04-18T07:26:09.601Z,76.66
2023-04-18T07:29:12.282Z,75.88
2023-04-18T07:32:22.352Z,76.73
2023-04-18T07:35:26.443Z,77.15
2023-04-18T07:38:29.245Z,75.55
2023-04-18T07:41:31.990Z,76.71
2023-04-18T07:44:36.384Z,76.23
2023-04-18T07:47:39.058Z,76.88
2023-04-18T07:50:48.776Z,76.31
2023-04-18T07:53:51.405Z,76.54
2023-04-18T07:56:54.041Z,75.82
2023-04-18T07:59:56.890Z,76.23
2023-04-18T08:02:59.825Z,74.67
2023-04-18T08:06:05.902Z,74.98
2023-04-18T08:09:09.102Z,73.80
2023-04-18T08:12:11.777Z,72.93
2023-04-18T08:15:17.485Z,71.20
2023-04-18T08:18:20.798Z,70.83
2023-04-18T08:21:24.798Z,71.41
2023-04-18T08:24:27.822Z,70.30
2023-04-18T08:27:31.364Z,70.14
2023-04-18T08:30:34.064Z,69.70
2023-04-18T08:33:37.121Z,71.60
2023-04-18T08:36:41.117Z,69.68
2023-04-18T08:39:44.832Z,69.49
2023-04-18T08:42:47.616Z,70.99
2023-04-18T08:45:50.721Z,69.27
2023-04-18T08:48:53.718Z,66.76
2023-04-18T08:51:59.626Z,68.95
2023-04-18T08:55:03.878Z,68.23
2023-04-18T08:58:06.880Z,68.40
2023-04-18T09:01:10.296Z,67.51
2023-04-18T09:04:14.117Z,67.74
2023-04-18T09:07:18.909Z,65.01
2023-04-18T09:10:29.930Z,66.52
2023-04-18T09:13:39.857Z,65.90
2023-04-18T09:16:47.952Z,64.61
2023-04-18T09:19:50.957Z,66.20
2023-04-18T09:22:57.770Z,66.13
2023-04-18T09:26:00.414Z,64.90
2023-04-18T09:29:03.307Z,64.88
2023-04-18T09:32:06.478Z,64.28
2023-04-18T09:35:09.708Z,64.73
2023-04-18T09:38:13.699Z,64.87
2023-04-18T09:41:19.945Z,64.17
2023-04-18T09:44:23.992Z,63.10
2023-04-18T09:47:27.764Z,61.79
2023-04-18T09:50:31.255Z,63.38
2023-04-18T09:53:40.489Z,60.84
2023-04-18T09:56:45.729Z,60.28
2023-04-18T09:59:52.617Z,61.51
2023-04-18T10:03:09.833Z,61.00
2023-04-18T10:06:13.000Z,62.45
2023-04-18T10:09:17.274Z,62.86
2023-04-18T10:12:20.590Z,60.69
2023-04-18T10:15:28.506Z,59.83
2023-04-18T10:18:31.205Z,61.43
2023-04-18T10:21:35.442Z,61.11
2023-04-18T10:24:49.960Z,58.61
2023-04-18T10:28:00.455Z,58.35
2023-04-18T10:31:05.548Z,57.11
2023-04-18T10:34:08.507Z,56.38
2023-04-18T10:37:12.786Z,56.19
2023-04-18T10:40:17.680Z,56.21
2023-04-18T10:43:20.704Z,57.86
2023-04-18T10:46:31.746Z,57.94
2023-04-18T10:49:37.629Z,57.59
2023-04-18T10:52:40.597Z,58.20
2023-04-18T10:55:50.685Z,57.46
2023-04-18T10:58:54.222Z,58.36
2023-04-18T11:01:58.449Z,57.59
2023-04-18T11:05:04.763Z,56.98
2023-04-18T11:08:23.501Z,55.74
2023-04-18T11:11:27.687Z,55.74
2023-04-18T11:14:40.486Z,56.63
2023-04-18T11:17:43.245Z,55.66
2023-04-18T11:20:49.327Z,56.51
2023-04-18T11:23:52.417Z,56.41
2023-04-18T11:26:57.017Z,56.78
2023-04-18T11:29:59.997Z,56.31
2023-04-18T11:33:06.481Z,55.02
2023-04-18T11:36:09.948Z,55.54
2023-04-18T11:39:12.923Z,54.82
2023-04-18T11:42:17.606Z,54.31
2023-04-18T11:45:20.848Z,55.04
2023-04-18T11:48:24.224Z,53.68
2023-04-18T11:51:35.723Z,53.19
2023-04-18T11:54:43.046Z,53.79
2023-04-18T11:57:55.198Z,52.11
2023-04-18T12:00:58.774Z,53.47
2023-04-18T12:04:03.401Z,52.48
2023-04-18T12:07:06.652Z,52.24
2023-04-18T12:10:11.214Z,52.62
2023-04-18T12:13:16.019Z,53.01
2023-04-18T12:16:18.790Z,53.16
2023-04-18T12:19:21.678Z,52.89
2023-04-18T12:22:42.961Z,52.80
2023-04-18T12:25:45.784Z,52.54
2023-04-18T12:28:51.392Z,52.45
2023-04-18T12:31:54.283Z,51.55
2023-04-18T12:34:57.522Z,53.30
2023-04-18T12:38:02.159Z,52.79
2023-04-18T12:41:05.509Z,53.14
2023-04-18T12:44:10.132Z,52.83
2023-04-18T12:47:13.012Z,53.61
2023-04-18T12:50:20.527Z,52.58
2023-04-18T12:53:23.204Z,53.77
2023-04-18T12:56:25.870Z,51.36
2023-04-18T12:59:30.189Z,52.00
2023-04-18T13:02:37.223Z,52.00
2023-04-18T13:05:40.136Z,51.21
2023-04-18T13:08:42.862Z,50.75
2023-04-18T13:11:49.512Z,51.38
2023-04-18T13:14:53.739Z,49.51
2023-04-18T13:17:57.179Z,49.69
2023-04-18T13:20:59.856Z,49.27
2023-04-18T13:24:03.131Z,49.36
2023-04-18T13:27:10.341Z,50.54
2023-04-18T13:30:14.740Z,49.82
2023-04-18T13:33:18.045Z,49.59
2023-04-18T13:36:21.190Z,48.94
2023-04-18T13:39:24.884Z,49.17
2023-04-18T13:42:27.764Z,48.82
2023-04-18T13:45:32.097Z,48.57
2023-04-18T13:48:34.878Z,48.30
2023-04-18T13:51:37.498Z,48.60
2023-04-18T13:54:41.335Z,48.14
2023-04-18T13:57:44.086Z,47.40
2023-04-18T14:00:48.070Z,47.96
2023-04-18T14:03:51.171Z,48.40
2023-04-18T14:06:54.015Z,47.63
2023-04-18T14:09:56.668Z,47.77
2023-04-18T14:12:59.314Z,44.86
2023-04-18T14:16:03.772Z,46.41
2023-04-18T14:19:06.725Z,45.55
2023-04-18T14:22:09.406Z,45.60
2023-04-18T14:25:14.320Z,45.42
2023-04-18T14:28:19.042Z,45.14
2023-04-18T14:31:23.139Z,46.53
2023-04-18T14:34:25.870Z,47.69
2023-04-18T14:37:28.740Z,47.95
2023-04-18T14:40:32.981Z,47.64
2023-04-18T14:43:35.820Z,47.52
2023-04-18T14:46:39.968Z,47.81
2023-04-18T14:49:42.798Z,48.64
2023-04-18T14:52:46.356Z,47.94
2023-04-18T14:55:49.065Z,46.99
2023-04-18T14:58:51.707Z,48.38
2023-04-18T15:01:56.219Z,48.99
2023-04-18T15:04:59.103Z,49.85
2023-04-18T15:08:02.055Z,48.73
2023-04-18T15:11:07.201Z,48.51
2023-04-18T15:14:10.674Z,47.71
2023-04-18T15:17:14.753Z,47.07
2023-04-18T15:20:17.559Z,48.06
2023-04-18T15:23:20.842Z,47.13
2023-04-18T15:26:24.776Z,47.88
2023-04-18T15:29:27.506Z,47.32
2023-04-18T15:32:31.581Z,48.49
2023-04-18T15:35:34.208Z,47.97
2023-04-18T15:38:36.936Z,48.83
2023-04-18T15:41:42.045Z,48.35
2023-04-18T15:44:44.808Z,49.06
2023-04-18T15:47:48.908Z,49.18
2023-04-18T15:50:52.368Z,49.91
2023-04-18T15:53:55.170Z,50.09
2023-04-18T15:56:58.216Z,51.16
2023-04-18T16:00:00.984Z,51.82
2023-04-18T16:03:05.695Z,51.52
2023-04-18T16:06:09.794Z,52.12
2023-04-18T16:09:12.513Z,51.60
2023-04-18T16:12:15.126Z,51.37
2023-04-18T16:15:18.016Z,51.25
2023-04-18T16:18:22.120Z,52.97
2023-04-18T16:21:25.867Z,53.26
2023-04-18T16:24:30.238Z,52.99
2023-04-18T16:27:33.467Z,52.63
2023-04-18T16:30:36.252Z,51.61
2023-04-18T16:33:40.250Z,53.36
2023-04-18T16:36:42.974Z,53.89
2023-04-18T16:39:45.974Z,54.35
2023-04-18T16:42:48.669Z,55.05
2023-04-18T16:45:51.408Z,54.30
2023-04-18T16:48:55.605Z,55.30
2023-04-18T16:51:58.402Z,54.64
2023-04-18T16:55:01.024Z,55.54
2023-04-18T16:58:04.023Z,55.24
2023-04-18T17:01:08.080Z,56.06
2023-04-18T17:04:12.646Z,55.57
2023-04-18T17:07:15.609Z,56.18
2023-04-18T17:10:18.699Z,56.46
2023-04-18T17:13:22.372Z,56.43
2023-04-18T17:16:25.246Z,57.42
2023-04-18T17:19:29.300Z,58.04
2023-04-18T17:22:32.290Z,57.96
2023-04-18T17:25:34.938Z,58.94
2023-04-18T17:28:37.958Z,58.94
2023-04-18T17:31:40.744Z,58.80
2023-04-18T17:34:44.737Z,60.08
2023-04-18T17:37:47.845Z,59.72
2023-04-18T17:40:59.357Z,59.82
2023-04-18T17:44:02.286Z,60.73
2023-04-18T17:47:05.470Z,60.68
2023-04-18T17:50:10.330Z,60.82
2023-04-18T17:53:13.135Z,60.82
2023-04-18T17:56:16.376Z,61.24
2023-04-18T17:59:19.115Z,61.44
2023-04-18T18:02:23.323Z,61.06
2023-04-18T18:05:27.748Z,60.93
2023-04-18T18:08:30.681Z,61.65
2023-04-18T18:11:33.634Z,62.01
2023-04-18T18:14:36.455Z,61.99
2023-04-18T18:17:39.178Z,62.14
2023-04-18T18:20:43.877Z,62.73
2023-04-18T18:23:46.597Z,63.26
2023-04-18T18:26:51.506Z,63.20
2023-04-18T18:29:54.453Z,63.44
2023-04-18T18:32:57.549Z,63.77
2023-04-18T18:36:01.824Z,63.96
2023-04-18T18:39:04.738Z,64.07
2023-04-18T18:42:08.065Z,63.79
2023-04-18T18:45:11.164Z,63.66
2023-04-18T18:48:15.337Z,64.48
2023-04-18T18:51:19.929Z,65.09
2023-04-18T18:54:22.863Z,65.13
2023-04-18T18:57:26.109Z,65.15
2023-04-18T19:00:28.849Z,65.13
2023-04-18T19:03:31.699Z,65.70
2023-04-18T19:06:36.412Z,65.48
2023-04-18T19:09:39.067Z,65.87
2023-04-18T19:12:42.846Z,65.97
2023-04-18T19:15:45.708Z,66.20
2023-04-18T19:18:50.445Z,65.40
2023-04-18T19:21:54.454Z,66.60
2023-04-18T19:24:57.295Z,66.41
2023-04-18T19:28:00.017Z,66.43
2023-04-18T19:31:03.429Z,66.48
2023-04-18T19:34:06.109Z,66.88
2023-04-18T19:37:10.127Z,66.66
2023-04-18T19:40:15.038Z,66.39
2023-04-18T19:43:18.054Z,67.12
2023-04-18T19:46:20.723Z,67.45
2023-04-18T19:49:23.414Z,66.95
2023-04-18T19:52:27.776Z,67.36
2023-04-18T19:55:31.588Z,67.42
2023-04-18T19:58:36.005Z,67.91
2023-04-18T20:01:38.789Z,67.83
2023-04-18T20:04:41.912Z,68.07
2023-04-18T20:07:46.356Z,67.39
2023-04-18T20:10:49.016Z,67.66
2023-04-18T20:13:52.297Z,68.13
2023-04-18T20:16:55.950Z,67.25
2023-04-18T20:19:59.650Z,67.76
2023-04-18T20:23:03.800Z,68.42
2023-04-18T20:26:06.596Z,68.60
2023-04-18T20:29:09.263Z,68.42
2023-04-18T20:32:12.380Z,68.74
2023-04-18T20:35:15.009Z,68.68
2023-04-18T20:38:20.115Z,68.43
2023-04-18T20:41:24.211Z,68.91
2023-04-18T20:44:28.057Z,68.68
2023-04-18T20:47:30.941Z,68.46
2023-04-18T20:50:33.616Z,68.70
2023-04-18T20:53:37.650Z,68.80
2023-04-18T20:56:40.608Z,69.00
2023-04-18T20:59:43.244Z,69.03
2023-04-18T21:02:46.118Z,68.84
2023-04-18T21:05:48.820Z,69.08
2023-04-18T21:08:53.083Z,68.25
2023-04-18T21:11:55.716Z,68.31
2023-04-18T21:14:58.380Z,68.38
2023-04-18T21:18:01.107Z,69.00
2023-04-18T21:21:03.836Z,69.00
2023-04-18T21:24:08.147Z,69.37
2023-04-18T21:27:11.396Z,69.96
2023-04-18T21:30:14.803Z,70.09
2023-04-18T21:33:17.541Z,69.99
2023-04-18T21:36:20.563Z,70.15
2023-04-18T21:39:24.704Z,70.50
2023-04-18T21:42:27.378Z,70.67
2023-04-18T21:45:30.097Z,70.28
2023-04-18T21:48:32.816Z,70.48
2023-04-18T21:51:35.452Z,70.33
2023-04-18T21:54:40.246Z,69.99
2023-04-18T21:57:42.992Z,70.24
2023-04-18T22:00:45.968Z,70.13
2023-04-18T22:03:48.828Z,70.34
2023-04-18T22:06:54.063Z,70.26
2023-04-18T22:09:59.709Z,70.27
2023-04-18T22:13:04.373Z,70.55
2023-04-18T22:16:08.348Z,70.42
2023-04-18T22:19:11.414Z,69.71
2023-04-18T22:22:14.063Z,70.58
2023-04-18T22:25:18.146Z,70.51
2023-04-18T22:28:22.803Z,70.94
2023-04-18T22:31:25.833Z,70.92
2023-04-18T22:34:28.535Z,70.88
2023-04-18T22:37:31.382Z,70.89
2023-04-18T22:40:37.921Z,71.01
2023-04-18T22:43:40.584Z,70.69
2023-04-18T22:46:44.814Z,69.87
2023-04-18T22:49:47.697Z,70.32
2023-04-18T22:52:51.102Z,69.88
2023-04-18T22:55:55.413Z,70.95
2023-04-18T22:58:58.164Z,70.65
2023-04-18T23:02:02.256Z,70.69
2023-04-18T23:05:06.008Z,70.49
2023-04-18T23:08:08.727Z,70.83
2023-04-18T23:11:12.750Z,70.61
2023-04-18T23:14:16.951Z,70.27
2023-04-18T23:17:19.765Z,70.18
2023-04-18T23:20:25.486Z,70.75
2023-04-18T23:23:28.236Z,70.92
2023-04-18T23:26:32.326Z,70.27
2023-04-18T23:29:37.680Z,70.78
2023-04-18T23:32:40.717Z,70.89
2023-04-18T23:35:43.516Z,70.79
2023-04-18T23:38:46.755Z,70.99
2023-04-18T23:41:51.411Z,70.98
2023-04-18T23:44:54.655Z,71.32
2023-04-18T23:47:57.385Z,71.44
2023-04-18T23:51:00.368Z,71.53
2023-04-18T23:54:03.698Z,71.74
2023-04-18T23:57:07.707Z,70.94
